Time;durP1;ratioP1;P1;durP2;ratioP2;P2;SDS_P1;SDS_P2;PMS_P1;PMS_P2;Temp;Humidity;BMP_temperature;BMP_pressure;BME280_temperature;BME280_humidity;BME280_pressure;Samples;Min_cycle;Max_cycle;Signal;HPM_P1;HPM_P2
2023/08/19 00:01:17;;;;;;;1999.90;999.90;;;22.50;99.90;;;;;;5096235;28;20024;-72
2023/08/19 00:03:43;;;;;;;1999.90;999.90;;;22.50;99.90;;;;;;5095935;28;20060;-72
2023/08/19 00:06:11;;;;;;;1999.90;999.90;;;22.50;99.90;;;;;;5095480;28;20016;-71
2023/08/19 00:08:37;;;;;;;1999.90;999.90;;;22.40;99.90;;;;;;5095665;28;20028;-72
2023/08/19 00:11:03;;;;;;;1999.90;999.90;;;22.40;99.90;;;;;;5090608;28;20467;-72
2023/08/19 00:13:30;;;;;;;1999.90;999.90;;;22.40;99.90;;;;;;5086844;28;20375;-72
2023/08/19 00:15:56;;;;;;;1999.90;999.90;;;22.40;99.90;;;;;;5096041;28;20012;-73
2023/08/19 00:18:21;;;;;;;1999.90;999.90;;;22.40;99.90;;;;;;5094482;28;20032;-72
2023/08/19 00:20:49;;;;;;;1999.90;999.90;;;22.40;99.90;;;;;;5095008;28;20052;-72
2023/08/19 00:23:16;;;;;;;1999.90;999.90;;;22.40;99.90;;;;;;5095564;28;20479;-72
2023/08/19 00:25:42;;;;;;;1999.90;999.90;;;22.40;99.90;;;;;;5094464;28;20028;-72
2023/08/19 00:28:07;;;;;;;1999.90;999.90;;;22.30;99.90;;;;;;5101423;28;20035;-72
2023/08/19 00:30:33;;;;;;;1999.90;999.90;;;22.30;99.90;;;;;;5095777;28;20028;-72
2023/08/19 00:32:59;;;;;;;1999.90;999.90;;;22.20;99.90;;;;;;5095826;28;20028;-72
2023/08/19 00:35:25;;;;;;;1999.90;999.90;;;22.30;99.90;;;;;;5078353;28;20082;-72
2023/08/19 00:37:50;;;;;;;1999.90;999.90;;;22.20;99.90;;;;;;5075032;28;20434;-72
2023/08/19 00:40:16;;;;;;;1999.90;999.90;;;22.20;99.90;;;;;;5075112;28;20031;-72
2023/08/19 00:42:43;;;;;;;1999.90;999.90;;;22.20;99.90;;;;;;5073911;28;20082;-72
2023/08/19 00:45:09;;;;;;;1999.90;999.90;;;22.10;99.90;;;;;;5074656;28;20100;-72
2023/08/19 00:47:36;;;;;;;1999.90;999.90;;;22.10;99.90;;;;;;5075091;28;20086;-72
2023/08/19 00:50:05;;;;;;;1999.90;999.90;;;22.10;99.90;;;;;;5078466;28;20070;-72
2023/08/19 00:52:30;;;;;;;1999.90;999.90;;;22.10;99.90;;;;;;5083590;28;20059;-72
2023/08/19 00:54:56;;;;;;;1999.90;999.90;;;22.10;99.90;;;;;;5073671;28;20444;-72
2023/08/19 00:57:23;;;;;;;1999.90;999.90;;;22.10;99.90;;;;;;5074846;28;20029;-72
2023/08/19 00:59:48;;;;;;;1999.90;999.90;;;22.10;99.90;;;;;;5074957;28;20028;-72
2023/08/19 01:02:14;;;;;;;1999.90;999.90;;;22.00;99.90;;;;;;5074589;28;20044;-72
2023/08/19 01:04:39;;;;;;;1999.90;999.90;;;22.00;99.90;;;;;;5074761;28;20103;-72
2023/08/19 01:07:28;;;;;;;1999.90;999.90;;;22.00;99.90;;;;;;5073461;28;20028;-72
2023/08/19 01:10:10;;;;;;;1999.90;999.90;;;22.00;99.90;;;;;;5074579;28;20021;-71
2023/08/19 01:13:05;;;;;;;1999.90;999.90;;;21.90;99.90;;;;;;5084264;28;20055;-72
2023/08/19 01:15:36;;;;;;;1999.90;999.90;;;21.80;99.90;;;;;;5074331;28;20024;-72
2023/08/19 01:18:05;;;;;;;1999.90;999.90;;;21.80;99.90;;;;;;5074200;28;20017;-72
2023/08/19 01:20:31;;;;;;;1999.90;999.90;;;21.70;99.90;;;;;;5074330;28;20108;-72
2023/08/19 01:23:10;;;;;;;1999.90;999.90;;;21.70;99.90;;;;;;5088363;28;20073;-71
2023/08/19 01:25:36;;;;;;;1999.90;999.90;;;21.60;99.90;;;;;;5094572;28;20024;-72
2023/08/19 01:28:03;;;;;;;1999.90;999.90;;;21.60;99.90;;;;;;5094445;28;20340;-72
2023/08/19 01:30:30;;;;;;;1999.90;999.90;;;21.50;99.90;;;;;;5094527;28;20024;-71
2023/08/19 01:32:57;;;;;;;1999.90;999.90;;;21.60;99.90;;;;;;5093152;28;20031;-72
2023/08/19 01:35:24;;;;;;;1999.90;999.90;;;21.60;99.90;;;;;;5094510;28;20028;-72
2023/08/19 01:38:17;;;;;;;1999.90;999.90;;;21.60;99.90;;;;;;5094661;28;20024;-71
2023/08/19 01:40:43;;;;;;;1999.90;999.90;;;21.60;99.90;;;;;;5094537;28;20030;-72
2023/08/19 01:43:11;;;;;;;1999.90;999.90;;;21.60;99.90;;;;;;5091467;28;20107;-72
2023/08/19 01:45:38;;;;;;;1999.90;999.90;;;21.60;99.90;;;;;;5073560;28;20024;-72
2023/08/19 01:48:04;;;;;;;1999.90;999.90;;;21.60;99.90;;;;;;5073766;28;20551;-72
2023/08/19 01:50:29;;;;;;;1999.90;999.90;;;21.60;99.90;;;;;;5080186;28;20187;-72
2023/08/19 01:52:55;;;;;;;1999.90;999.90;;;21.60;99.90;;;;;;5080079;28;20714;-71
2023/08/19 01:55:22;;;;;;;1999.90;999.90;;;21.50;99.90;;;;;;5073981;28;20075;-72
2023/08/19 01:57:47;;;;;;;1999.90;999.90;;;21.50;99.90;;;;;;5073567;28;20024;-72
2023/08/19 02:00:13;;;;;;;1999.90;999.90;;;21.40;99.90;;;;;;5072305;28;20029;-72
2023/08/19 02:02:39;;;;;;;1999.90;999.90;;;21.40;99.90;;;;;;5073360;28;20056;-71
2023/08/19 02:05:05;;;;;;;1999.90;999.90;;;21.30;99.90;;;;;;5073409;28;20056;-72
2023/08/19 02:07:31;;;;;;;1999.90;999.90;;;21.30;99.90;;;;;;5073256;28;20032;-72
2023/08/19 02:09:56;;;;;;;1999.90;999.90;;;21.30;99.90;;;;;;5073414;28;20162;-71
2023/08/19 02:12:22;;;;;;;1999.90;999.90;;;21.30;99.90;;;;;;5080842;28;20028;-72
2023/08/19 02:14:48;;;;;;;1999.90;999.90;;;21.40;99.90;;;;;;5092191;28;20529;-72
2023/08/19 02:17:13;;;;;;;1999.90;999.90;;;21.40;99.90;;;;;;5093375;28;20035;-71
2023/08/19 02:19:39;;;;;;;1999.90;999.90;;;21.40;99.90;;;;;;5093888;28;20039;-72
2023/08/19 02:22:05;;;;;;;1999.90;999.90;;;21.50;99.90;;;;;;5093858;28;20027;-72
2023/08/19 02:24:30;;;;;;;1999.90;999.90;;;21.50;99.90;;;;;;5093149;28;20046;-72
2023/08/19 02:26:56;;;;;;;1999.90;999.90;;;21.50;99.90;;;;;;5093786;28;20028;-72
2023/08/19 02:29:21;;;;;;;1999.90;999.90;;;21.60;99.90;;;;;;5093494;28;20051;-72
2023/08/19 02:31:47;;;;;;;1999.90;999.90;;;21.60;99.90;;;;;;5093595;28;20403;-72
2023/08/19 02:34:13;;;;;;;1999.90;999.90;;;21.60;99.90;;;;;;5093463;28;20036;-72
2023/08/19 02:36:39;;;;;;;1999.90;999.90;;;21.70;99.90;;;;;;5093174;28;20107;-71
2023/08/19 02:39:05;;;;;;;1999.90;999.90;;;21.70;99.90;;;;;;5093286;28;20035;-72
2023/08/19 02:41:30;;;;;;;1999.90;999.90;;;21.70;99.90;;;;;;5093074;28;20032;-71
2023/08/19 02:43:56;;;;;;;1999.90;999.90;;;21.80;99.90;;;;;;5085552;28;20091;-72
2023/08/19 02:46:22;;;;;;;1999.90;999.90;;;21.80;99.90;;;;;;5073012;28;20089;-71
2023/08/19 02:48:47;;;;;;;1999.90;999.90;;;21.80;99.90;;;;;;5073040;28;20123;-72
2023/08/19 02:51:13;;;;;;;1999.90;999.90;;;21.90;99.90;;;;;;5078945;28;20016;-72
2023/08/19 02:53:39;;;;;;;1999.90;999.90;;;21.90;99.90;;;;;;5092414;28;20099;-72
2023/08/19 02:56:06;;;;;;;1999.90;999.90;;;21.90;99.90;;;;;;5091702;28;20105;-72
2023/08/19 02:58:32;;;;;;;1999.90;999.90;;;21.90;99.90;;;;;;5094984;28;20487;-72
2023/08/19 03:00:57;;;;;;;1999.90;999.90;;;21.90;99.90;;;;;;5096220;28;20076;-72
2023/08/19 03:03:23;;;;;;;1999.90;999.90;;;21.90;99.90;;;;;;5096982;28;20414;-72
2023/08/19 03:05:49;;;;;;;1999.90;999.90;;;22.00;99.90;;;;;;5095758;28;20022;-72
2023/08/19 03:08:14;;;;;;;1999.90;999.90;;;22.00;99.90;;;;;;5097219;28;20386;-71
2023/08/19 03:10:40;;;;;;;1999.90;999.90;;;22.00;99.90;;;;;;5092609;28;20036;-71
2023/08/19 03:13:07;;;;;;;1999.90;999.90;;;22.10;99.90;;;;;;5080957;28;20502;-72
2023/08/19 03:15:35;;;;;;;1999.90;999.90;;;22.10;99.90;;;;;;5075423;28;20029;-72
2023/08/19 03:18:01;;;;;;;1999.90;999.90;;;22.20;99.90;;;;;;5076567;28;20102;-72
2023/08/19 03:20:27;;;;;;;1999.90;999.90;;;22.20;99.90;;;;;;5076003;28;20034;-72
2023/08/19 03:22:53;;;;;;;1999.90;999.90;;;22.30;99.90;;;;;;5076143;28;20028;-71
2023/08/19 03:25:19;;;;;;;1999.90;999.90;;;22.30;99.90;;;;;;5076535;28;20016;-71
2023/08/19 03:27:44;;;;;;;1999.90;999.90;;;22.40;99.90;;;;;;5076636;28;20056;-72
2023/08/19 03:30:10;;;;;;;1999.90;999.90;;;22.40;99.90;;;;;;5076477;28;20025;-72
2023/08/19 03:32:36;;;;;;;1999.90;999.90;;;22.40;99.90;;;;;;5076961;28;20063;-72
2023/08/19 03:35:02;;;;;;;1999.90;999.90;;;22.40;99.90;;;;;;5074667;28;20503;-71
2023/08/19 03:37:28;;;;;;;1999.90;999.90;;;22.40;99.90;;;;;;5074499;28;20036;-72
2023/08/19 03:39:54;;;;;;;1999.90;999.90;;;22.40;99.90;;;;;;5076305;28;20020;-72
2023/08/19 03:42:19;;;;;;;1999.90;999.90;;;22.40;99.90;;;;;;5076241;28;20433;-72
2023/08/19 03:44:45;;;;;;;1999.90;999.90;;;22.40;99.90;;;;;;5076196;28;20021;-72
2023/08/19 03:47:11;;;;;;;1999.90;999.90;;;22.40;99.90;;;;;;5076179;28;20032;-72
2023/08/19 03:49:37;;;;;;;1999.90;999.90;;;22.40;99.90;;;;;;5078735;28;20030;-72
2023/08/19 03:52:04;;;;;;;1999.90;999.90;;;22.40;99.90;;;;;;5086690;28;20442;-72
2023/08/19 03:54:30;;;;;;;1999.90;999.90;;;22.50;99.90;;;;;;5094786;28;20414;-72
2023/08/19 03:56:55;;;;;;;1999.90;999.90;;;22.50;99.90;;;;;;5096473;28;20024;-72
2023/08/19 03:59:21;;;;;;;1999.90;999.90;;;22.50;99.90;;;;;;5096112;28;20113;-72
2023/08/19 04:01:46;;;;;;;1999.90;999.90;;;22.50;99.90;;;;;;5094834;28;20028;-72
2023/08/19 04:04:12;;;;;;;1999.90;999.90;;;22.50;99.90;;;;;;5096103;28;20031;-72
2023/08/19 04:06:38;;;;;;;1999.90;999.90;;;22.50;99.90;;;;;;5095841;28;20050;-72
2023/08/19 04:09:04;;;;;;;1999.90;999.90;;;22.60;99.90;;;;;;5095144;28;20368;-72
2023/08/19 04:11:30;;;;;;;1999.90;999.90;;;22.60;99.90;;;;;;5087438;28;20086;-72
2023/08/19 04:13:55;;;;;;;1999.90;999.90;;;22.60;99.90;;;;;;5077124;28;20032;-72
2023/08/19 04:16:22;;;;;;;1999.90;999.90;;;22.60;99.90;;;;;;5081881;28;20028;-72
2023/08/19 04:18:48;;;;;;;1999.90;999.90;;;22.60;99.90;;;;;;5088833;28;20062;-72
2023/08/19 04:21:14;;;;;;;1999.90;999.90;;;22.60;99.90;;;;;;5094546;28;20028;-72
2023/08/19 04:23:40;;;;;;;1999.90;999.90;;;22.60;99.90;;;;;;5075400;28;20070;-72
2023/08/19 04:26:05;;;;;;;1999.90;999.90;;;22.60;99.90;;;;;;5075483;28;20036;-72
2023/08/19 04:28:31;;;;;;;1999.90;999.90;;;22.60;99.90;;;;;;5075558;28;20029;-71
2023/08/19 04:31:04;;;;;;;1999.90;999.90;;;22.60;99.90;;;;;;5075680;28;20035;-72
2023/08/19 04:33:30;;;;;;;1999.90;999.90;;;22.60;99.90;;;;;;5073793;28;20487;-71
2023/08/19 04:35:56;;;;;;;1999.90;999.90;;;22.60;99.90;;;;;;5075265;28;20029;-71
2023/08/19 04:38:22;;;;;;;1999.90;999.90;;;22.50;99.90;;;;;;5074988;28;20028;-71
2023/08/19 04:40:47;;;;;;;1999.90;999.90;;;22.60;99.90;;;;;;5073809;28;20115;-72
2023/08/19 04:43:13;;;;;;;1999.90;999.90;;;22.50;99.90;;;;;;5075112;28;20017;-72
2023/08/19 04:45:38;;;;;;;1999.90;999.90;;;22.50;99.90;;;;;;5073686;28;20021;-72
2023/08/19 04:48:07;;;;;;;1999.90;999.90;;;22.50;99.90;;;;;;5074890;28;20029;-71
2023/08/19 04:50:33;;;;;;;1999.90;999.90;;;22.50;99.90;;;;;;5081189;28;20079;-72
2023/08/19 04:52:59;;;;;;;1999.90;999.90;;;22.40;99.90;;;;;;5087547;28;20027;-72
2023/08/19 04:55:26;;;;;;;1999.90;999.90;;;22.30;99.90;;;;;;5095309;28;20032;-72
2023/08/19 04:57:51;;;;;;;1999.90;999.90;;;22.20;99.90;;;;;;5093739;28;20043;-72
2023/08/19 05:00:17;;;;;;;1999.90;999.90;;;22.10;99.90;;;;;;5088433;28;20024;-72
2023/08/19 05:02:43;;;;;;;1999.90;999.90;;;22.10;99.90;;;;;;5074392;28;20055;-72
2023/08/19 05:05:08;;;;;;;1999.90;999.90;;;22.10;99.90;;;;;;5074815;28;20533;-71
2023/08/19 05:07:34;;;;;;;1999.90;999.90;;;22.10;99.90;;;;;;5074494;28;20032;-71
2023/08/19 05:10:00;;;;;;;1999.90;999.90;;;22.10;99.90;;;;;;5073481;28;20056;-71
2023/08/19 05:12:25;;;;;;;1999.90;999.90;;;22.10;99.90;;;;;;5083247;28;20089;-72
2023/08/19 05:14:52;;;;;;;1999.90;999.90;;;22.00;99.90;;;;;;5073747;28;20016;-72
2023/08/19 05:17:18;;;;;;;1999.90;999.90;;;22.10;99.90;;;;;;5074151;28;20103;-71
2023/08/19 05:19:44;;;;;;;1999.90;999.90;;;22.00;99.90;;;;;;5074576;28;20395;-71
2023/08/19 05:22:10;;;;;;;1999.90;999.90;;;21.90;99.90;;;;;;5075014;28;20028;-71
2023/08/19 05:24:36;;;;;;;1999.90;999.90;;;21.90;99.90;;;;;;5084909;28;20032;-71
2023/08/19 05:27:04;;;;;;;1999.90;999.90;;;21.90;99.90;;;;;;5093425;28;20039;-71
2023/08/19 05:29:30;;;;;;;1999.90;999.90;;;21.90;99.90;;;;;;5094544;28;20032;-71
2023/08/19 05:31:57;;;;;;;1999.90;999.90;;;21.90;99.90;;;;;;5094486;28;20031;-71
2023/08/19 05:34:24;;;;;;;1999.90;999.90;;;21.90;99.90;;;;;;5093074;28;20053;-71
2023/08/19 05:36:50;;;;;;;1999.90;999.90;;;22.00;99.90;;;;;;5093156;28;20043;-71
2023/08/19 05:39:16;;;;;;;1999.90;999.90;;;22.00;99.90;;;;;;5094413;28;20016;-72
2023/08/19 05:41:42;;;;;;;1999.90;999.90;;;22.00;99.90;;;;;;5082292;28;20036;-72
2023/08/19 05:44:07;;;;;;;1999.90;999.90;;;22.00;99.90;;;;;;5082290;28;20070;-71
2023/08/19 05:46:33;;;;;;;1999.90;999.90;;;22.00;99.90;;;;;;5073900;28;20025;-71
2023/08/19 05:48:59;;;;;;;1999.90;999.90;;;22.00;99.90;;;;;;5073989;28;20024;-71
2023/08/19 05:51:24;;;;;;;1999.90;999.90;;;22.00;99.90;;;;;;5080624;28;20029;-71
2023/08/19 05:53:50;;;;;;;1999.90;999.90;;;22.00;99.90;;;;;;5093972;28;20028;-72
2023/08/19 05:56:15;;;;;;;1999.90;999.90;;;22.00;99.90;;;;;;5093973;28;20028;-71
2023/08/19 05:58:41;;;;;;;1999.90;999.90;;;21.90;99.90;;;;;;5093915;28;20395;-71
2023/08/19 06:01:07;;;;;;;1999.90;999.90;;;21.90;99.90;;;;;;5094296;28;20028;-70
2023/08/19 06:03:33;;;;;;;1999.90;999.90;;;21.80;99.90;;;;;;5093474;28;20092;-71
2023/08/19 06:06:06;;;;;;;1999.90;999.90;;;21.80;99.90;;;;;;5093826;28;20048;-71
2023/08/19 06:08:32;;;;;;;1999.90;999.90;;;21.60;99.90;;;;;;5093759;28;20027;-72
2023/08/19 06:11:05;;;;;;;1999.90;999.90;;;21.50;99.90;;;;;;5086196;28;20052;-71
2023/08/19 06:13:31;;;;;;;1999.90;999.90;;;21.40;99.90;;;;;;5082158;28;20491;-71
2023/08/19 06:15:57;;;;;;;1999.90;999.90;;;21.30;99.90;;;;;;5073299;28;20035;-71
2023/08/19 06:18:24;;;;;;;1999.90;999.90;;;21.20;99.90;;;;;;5073496;28;20028;-71
2023/08/19 06:20:50;;;;;;;1999.90;999.90;;;21.20;99.90;;;;;;5072522;28;20036;-71
2023/08/19 06:23:18;;;;;;;1999.90;999.90;;;21.20;99.90;;;;;;5073089;28;20031;-71
2023/08/19 06:25:44;;;;;;;1999.90;999.90;;;21.20;99.90;;;;;;5078822;28;20055;-71
2023/08/19 06:28:09;;;;;;;1999.90;999.90;;;21.30;99.90;;;;;;5081937;28;20547;-71
2023/08/19 06:30:35;;;;;;;1999.90;999.90;;;21.30;99.90;;;;;;5081881;28;20115;-72
2023/08/19 06:33:01;;;;;;;1999.90;999.90;;;21.30;99.90;;;;;;5093505;28;20027;-72
2023/08/19 06:35:27;;;;;;;1999.90;999.90;;;21.30;99.90;;;;;;5093334;28;20469;-72
2023/08/19 06:37:55;;;;;;;1999.90;999.90;;;21.40;99.90;;;;;;5093151;28;20055;-72
2023/08/19 06:40:24;;;;;;;1999.90;999.90;;;21.50;99.90;;;;;;5093257;28;20020;-71
2023/08/19 06:42:51;;;;;;;1999.90;999.90;;;21.60;99.90;;;;;;5093474;28;20068;-71
2023/08/19 06:45:18;;;;;;;1999.90;999.90;;;21.70;99.90;;;;;;5076073;28;20024;-71
2023/08/19 06:47:45;;;;;;;1999.90;999.90;;;21.90;99.90;;;;;;5075870;28;20032;-72
2023/08/19 06:50:12;;;;;;;1999.90;999.90;;;22.00;99.90;;;;;;5076164;28;20036;-72
2023/08/19 06:52:38;;;;;;;1999.90;999.90;;;21.90;99.90;;;;;;5080504;28;20064;-72
2023/08/19 06:55:05;;;;;;;1999.90;999.90;;;22.00;99.90;;;;;;5071509;28;20493;-71
2023/08/19 06:57:40;;;;;;;1999.90;999.90;;;22.10;99.90;;;;;;5072965;28;20501;-72
2023/08/19 07:00:09;;;;;;;1999.90;999.90;;;22.00;99.90;;;;;;5072763;28;20110;-72
2023/08/19 07:02:38;;;;;;;1999.90;999.90;;;22.00;99.90;;;;;;5073001;28;20045;-71
2023/08/19 07:05:15;;;;;;;1999.90;999.90;;;21.90;99.90;;;;;;5071292;28;20056;-72
2023/08/19 07:07:48;;;;;;;1999.90;999.90;;;21.90;99.90;;;;;;5072659;28;20487;-72
2023/08/19 07:10:18;;;;;;;1999.90;999.90;;;21.90;99.90;;;;;;5072592;28;20031;-72
2023/08/19 07:12:44;;;;;;;1999.90;999.90;;;21.70;99.90;;;;;;5078123;28;20499;-72
2023/08/19 07:15:12;;;;;;;1999.90;999.90;;;21.80;99.90;;;;;;5074529;28;20029;-71
2023/08/19 07:17:50;;;;;;;1999.90;999.90;;;21.70;99.90;;;;;;5082118;28;20024;-72
2023/08/19 07:20:18;;;;;;;1999.90;999.90;;;21.80;99.90;;;;;;5092972;28;20065;-71
2023/08/19 07:22:46;;;;;;;1999.90;999.90;;;21.90;99.90;;;;;;5093035;28;20016;-72
2023/08/19 07:25:12;;;;;;;1999.90;999.90;;;22.00;99.90;;;;;;5088643;28;20159;-72
2023/08/19 07:27:38;;;;;;;1999.90;999.90;;;22.00;99.90;;;;;;5082913;28;20097;-72
2023/08/19 07:30:04;;;;;;;1999.90;999.90;;;22.00;99.90;;;;;;5072841;28;20060;-71
2023/08/19 07:32:35;;;;;;;1999.90;999.90;;;22.00;99.90;;;;;;5079030;28;20070;-71
2023/08/19 07:35:00;;;;;;;1999.90;999.90;;;22.00;99.90;;;;;;5085711;28;20073;-71
2023/08/19 07:37:26;;;;;;;1999.90;999.90;;;21.90;99.90;;;;;;5092404;28;20433;-71
2023/08/19 07:39:55;;;;;;;1999.90;999.90;;;22.00;99.90;;;;;;5091507;28;20020;-71
2023/08/19 07:42:21;;;;;;;1999.90;999.90;;;22.10;99.90;;;;;;5092687;28;20436;-71
2023/08/19 07:44:46;;;;;;;1999.90;999.90;;;22.00;99.90;;;;;;5075187;28;20025;-71
2023/08/19 07:47:12;;;;;;;1999.90;999.90;;;22.00;99.90;;;;;;5056317;28;20025;-71
2023/08/19 07:49:40;;;;;;;1999.90;999.90;;;22.00;99.90;;;;;;5063753;28;20115;-71
2023/08/19 07:52:06;;;;;;;1999.90;999.90;;;21.90;99.90;;;;;;5085152;28;20032;-70
2023/08/19 07:54:32;;;;;;;1999.90;999.90;;;21.90;99.90;;;;;;5096092;28;20035;-71
2023/08/19 07:56:58;;;;;;;1999.90;999.90;;;21.90;99.90;;;;;;5096432;28;20432;-71
2023/08/19 07:59:25;;;;;;;1999.90;999.90;;;21.90;99.90;;;;;;5096647;28;20099;-71
2023/08/19 08:01:52;;;;;;;1999.90;999.90;;;21.90;99.90;;;;;;5095921;28;20463;-71
2023/08/19 08:04:18;;;;;;;1999.90;999.90;;;21.90;99.90;;;;;;5096223;28;20100;-71
2023/08/19 08:06:46;;;;;;;1999.90;999.90;;;21.90;99.90;;;;;;5094746;28;20030;-71
2023/08/19 08:09:11;;;;;;;1999.90;999.90;;;21.90;99.90;;;;;;5096057;28;20035;-71
2023/08/19 08:11:37;;;;;;;1999.90;999.90;;;22.00;99.90;;;;;;5086116;28;20036;-71
2023/08/19 08:14:03;;;;;;;1999.90;999.90;;;22.10;99.90;;;;;;5074307;28;20446;-71
2023/08/19 08:16:28;;;;;;;1999.90;999.90;;;22.20;99.90;;;;;;5074514;28;20029;-72
2023/08/19 08:18:54;;;;;;;1999.90;999.90;;;22.20;99.90;;;;;;5075767;28;20712;-71
2023/08/19 08:21:20;;;;;;;1999.90;999.90;;;22.30;99.90;;;;;;5074128;28;20525;-71
2023/08/19 08:23:46;;;;;;;1999.90;999.90;;;22.50;99.90;;;;;;5075166;28;20028;-71
2023/08/19 08:26:13;;;;;;;1999.90;999.90;;;22.70;99.90;;;;;;5075645;28;20035;-71
2023/08/19 08:28:38;;;;;;;1999.90;999.90;;;22.70;99.90;;;;;;5075433;28;20509;-71
2023/08/19 08:31:04;;;;;;;1999.90;999.90;;;22.60;99.90;;;;;;5075486;28;20103;-71
2023/08/19 08:33:30;;;;;;;1999.90;999.90;;;22.40;99.90;;;;;;5075469;28;20024;-71
2023/08/19 08:35:55;;;;;;;1999.90;999.90;;;22.20;99.90;;;;;;5075226;28;20064;-71
2023/08/19 08:38:21;;;;;;;1999.90;999.90;;;22.10;99.90;;;;;;5075058;28;20395;-71
2023/08/19 08:40:46;;;;;;;1999.90;999.90;;;22.20;99.90;;;;;;5075168;28;20025;-71
2023/08/19 08:43:13;;;;;;;1999.90;999.90;;;22.40;99.90;;;;;;5074939;28;20013;-72
2023/08/19 08:45:39;;;;;;;1999.90;999.90;;;22.40;99.90;;;;;;5077060;28;20038;-72
2023/08/19 08:48:07;;;;;;;1999.90;999.90;;;22.40;99.90;;;;;;5084568;28;20036;-72
2023/08/19 08:50:33;;;;;;;1999.90;999.90;;;22.70;99.90;;;;;;5083796;28;20032;-72
2023/08/19 08:52:59;;;;;;;1999.90;999.90;;;23.00;99.90;;;;;;5088403;28;20036;-72
2023/08/19 08:55:25;;;;;;;1999.90;999.90;;;23.40;99.90;;;;;;5087915;28;20024;-72
2023/08/19 08:57:51;;;;;;;1999.90;999.90;;;23.50;99.90;;;;;;5083727;28;20403;-72
2023/08/19 09:00:17;;;;;;;1999.90;999.90;;;23.80;99.90;;;;;;5074723;28;20016;-72
2023/08/19 09:02:44;;;;;;;1999.90;999.90;;;24.30;99.90;;;;;;5074715;28;20507;-72
2023/08/19 09:05:12;;;;;;;1999.90;999.90;;;24.20;99.90;;;;;;5074680;28;20021;-72
2023/08/19 09:07:40;;;;;;;1999.90;999.90;;;24.30;99.90;;;;;;5074705;28;20021;-72
2023/08/19 09:10:15;;;;;;;1999.90;999.90;;;24.20;99.90;;;;;;5074266;28;20013;-72
2023/08/19 09:12:57;;;;;;;1999.90;999.90;;;24.20;99.90;;;;;;5085622;28;20028;-72
2023/08/19 09:15:26;;;;;;;1999.90;999.90;;;24.20;99.90;;;;;;5094764;28;20028;-72
2023/08/19 09:17:52;;;;;;;1999.90;999.90;;;24.20;99.90;;;;;;5093158;28;20031;-72
2023/08/19 09:20:19;;;;;;;1999.90;999.90;;;24.30;99.90;;;;;;5094357;28;20746;-72
2023/08/19 09:22:45;;;;;;;1999.90;999.90;;;24.40;99.90;;;;;;5081554;28;20438;-72
2023/08/19 09:25:14;;;;;;;1999.90;999.90;;;24.60;99.90;;;;;;5073139;28;20060;-72
2023/08/19 09:27:40;;;;;;;1999.90;999.90;;;24.80;99.90;;;;;;5074455;28;20029;-71
2023/08/19 09:30:06;;;;;;;1999.90;999.90;;;25.50;99.90;;;;;;5072625;28;20062;-72
2023/08/19 09:32:36;;;;;;;1999.90;999.90;;;26.70;99.90;;;;;;5072788;28;20054;-72
2023/08/19 09:35:11;;;;;;;1999.90;999.90;;;28.40;99.90;;;;;;5074142;28;20032;-73
2023/08/19 09:37:37;;;;;;;1999.90;999.90;;;28.90;99.90;;;;;;5073997;28;20103;-72
2023/08/19 09:40:08;;;;;;;1999.90;999.90;;;28.80;99.90;;;;;;5072537;28;20024;-72
2023/08/19 09:42:35;;;;;;;1999.90;999.90;;;28.50;99.90;;;;;;5073891;28;20613;-72
2023/08/19 09:45:02;;;;;;;1999.90;999.90;;;27.30;99.90;;;;;;5069320;28;20025;-72
2023/08/19 09:47:28;;;;;;;1999.90;999.90;;;26.40;99.90;;;;;;5054079;28;20483;-72
2023/08/19 09:49:56;;;;;;;1999.90;999.90;;;26.50;99.90;;;;;;5064256;28;20113;-72
2023/08/19 09:52:21;;;;;;;1999.90;999.90;;;26.80;99.90;;;;;;5084971;28;20112;-72
2023/08/19 09:54:53;;;;;;;1999.90;999.90;;;30.00;99.90;;;;;;5094198;28;20031;-75
2023/08/19 09:57:32;;;;;;;;;;;32.20;99.90;;;;;;5094288;28;20048;-74
2023/08/19 09:59:59;;;;;;;1999.90;999.90;;;31.00;99.90;;;;;;5094033;28;19917;-74
2023/08/19 10:02:24;;;;;;;1999.90;999.90;;;30.00;99.90;;;;;;5093994;28;20127;-74
2023/08/19 10:04:50;;;;;;;1999.90;999.90;;;29.60;99.90;;;;;;5092503;28;20024;-74
2023/08/19 10:07:21;;;;;;;1999.90;999.90;;;29.30;99.90;;;;;;5093153;28;20024;-74
2023/08/19 10:09:50;;;;;;;1999.90;999.90;;;29.00;99.90;;;;;;5093924;28;20056;-74
2023/08/19 10:12:16;;;;;;;1999.90;999.90;;;28.40;99.90;;;;;;5092450;28;20502;-75
2023/08/19 10:14:45;;;;;;;1999.90;999.90;;;27.60;99.90;;;;;;5096541;28;20077;-74
2023/08/19 10:17:11;;;;;;;1999.90;999.90;;;27.70;99.90;;;;;;5097810;28;20020;-74
2023/08/19 10:19:54;;;;;;;1999.90;999.90;;;28.10;99.90;;;;;;5095723;28;20043;-74
2023/08/19 10:22:21;;;;;;;1999.90;999.90;;;28.10;99.90;;;;;;5085790;28;20020;-74
2023/08/19 10:24:50;;;;;;;1999.90;999.90;;;27.60;99.90;;;;;;5073814;28;20108;-74
2023/08/19 10:27:17;;;;;;;1999.90;999.90;;;27.10;99.90;;;;;;5074626;28;20021;-74
2023/08/19 10:29:45;;;;;;;1999.90;999.90;;;27.20;99.90;;;;;;5073367;28;20032;-74
2023/08/19 10:32:31;;;;;;;1999.90;999.90;;;27.00;99.90;;;;;;5072889;28;20024;-74
2023/08/19 10:35:10;;;;;;;1999.90;999.90;;;26.90;99.90;;;;;;5071788;28;20036;-75
2023/08/19 10:37:40;;;;;;;1999.90;999.90;;;27.30;99.90;;;;;;5072785;28;20056;-75
2023/08/19 10:40:22;;;;;;;1999.90;999.90;;;27.10;99.90;;;;;;5073286;28;20031;-75
2023/08/19 10:43:00;;;;;;;1999.90;999.90;;;27.30;99.90;;;;;;5073367;28;20390;-74
2023/08/19 10:45:33;;;;;;;1999.90;999.90;;;27.90;99.90;;;;;;5073077;28;20505;-75
2023/08/19 10:47:59;;;;;;;1999.90;999.90;;;28.40;99.90;;;;;;5071582;28;20086;-74
2023/08/19 10:50:25;;;;;;;1999.90;999.90;;;28.30;99.90;;;;;;5078089;28;20028;-74
2023/08/19 10:53:04;;;;;;;1999.90;999.90;;;28.00;99.90;;;;;;5073113;28;20033;-75
2023/08/19 10:55:55;;;;;;;1999.90;999.90;;;28.60;99.90;;;;;;5072801;28;20040;-74
2023/08/19 10:58:22;;;;;;;1999.90;999.90;;;28.90;99.90;;;;;;5071499;28;20058;-74
2023/08/19 11:00:48;;;;;;;1999.90;999.90;;;28.80;99.90;;;;;;5073356;28;20021;-74
2023/08/19 11:03:15;;;;;;;1999.90;999.90;;;28.80;99.90;;;;;;5072841;28;20044;-74
2023/08/19 11:05:51;;;;;;;1999.90;999.90;;;28.60;99.90;;;;;;5072920;28;20024;-74
2023/08/19 11:08:16;;;;;;;1999.90;999.90;;;28.00;99.90;;;;;;5072618;28;20089;-74
2023/08/19 11:10:46;;;;;;;1999.90;999.90;;;28.10;99.90;;;;;;5075159;28;20728;-74
2023/08/19 11:13:13;;;;;;;1999.90;999.90;;;28.80;99.90;;;;;;5081714;28;20055;-74
2023/08/19 11:15:40;;;;;;;1999.90;999.90;;;29.30;99.90;;;;;;5093151;28;20039;-74
2023/08/19 11:18:06;;;;;;;1999.90;999.90;;;29.30;99.90;;;;;;5093093;28;20024;-75
2023/08/19 11:20:32;;;;;;;1999.90;999.90;;;29.90;99.90;;;;;;5095786;28;20031;-74
2023/08/19 11:22:57;;;;;;;1999.90;999.90;;;30.00;99.90;;;;;;5097209;28;20020;-74
2023/08/19 11:25:34;;;;;;;1999.90;999.90;;;30.70;99.90;;;;;;5097230;28;20021;-74
2023/08/19 11:28:00;;;;;;;1999.90;999.90;;;30.80;99.90;;;;;;5096664;28;20020;-75
2023/08/19 11:30:26;;;;;;;1999.90;999.90;;;31.50;99.90;;;;;;5095329;28;20024;-74
2023/08/19 11:32:51;;;;;;;1999.90;999.90;;;32.00;99.90;;;;;;5096514;28;20517;-76
2023/08/19 11:35:17;;;;;;;1999.90;999.90;;;31.60;99.90;;;;;;5096754;28;20035;-74
2023/08/19 11:37:44;;;;;;;1999.90;999.90;;;31.20;99.90;;;;;;5096524;28;20040;-74
2023/08/19 11:40:13;;;;;;;1999.90;999.90;;;30.70;99.90;;;;;;5095181;28;20032;-74
2023/08/19 11:42:38;;;;;;;1999.90;999.90;;;30.20;99.90;;;;;;5096413;28;20027;-75
2023/08/19 11:45:09;;;;;;;1999.90;999.90;;;29.80;99.90;;;;;;5079053;28;20399;-75
2023/08/19 11:47:35;;;;;;;1999.90;999.90;;;29.90;99.90;;;;;;5076167;28;20017;-75
2023/08/19 11:50:04;;;;;;;1999.90;999.90;;;29.90;99.90;;;;;;5079428;28;20468;-74
2023/08/19 11:52:32;;;;;;;1999.90;999.90;;;29.90;99.90;;;;;;5087270;28;20024;-74
2023/08/19 11:55:07;;;;;;;1999.90;999.90;;;29.60;99.90;;;;;;5096485;28;20222;-74
2023/08/19 11:57:38;;;;;;;1999.90;999.90;;;29.40;99.90;;;;;;5096161;28;20062;-75
2023/08/19 12:00:05;;;;;;;1999.90;999.90;;;29.50;99.90;;;;;;5096242;28;20032;-74